East Islip, NY (11730)

9:25 AM EDT on March 29, 2017 (GMT -0400)
East Islip | | Change Station

Elev 20 ft 40.72 °N, 73.18 °W | Updated 1 minute ago

Mostly Cloudy
Mostly Cloudy
47.5 °F
Feels Like 44 °F
N
7.3
Wind Variable Wind from NNW

Today
High -- | Low -- °F
--% Chance of Precip.
Yesterday
High -- | Low -- °F
Precip. -- in
Pressure 30.02 in
Visibility 10.0 miles
Clouds Scattered Clouds 2700 ft
Windchill 44 °F
Dew Point 39 °F
Humidity 71%
Rainfall 0.00 in
Snow Depth Not available.
6:40 AM 7:14 PM
Waxing Crescent, 3% visible
SPECI KISP 291320Z 36015KT 10SM SCT027 08/03 A3002 RMK AO2 T00830033
Pressure 30.02 in
Visibility 10.0 miles
Clouds Scattered Clouds 2700 ft
Windchill 44 °F
Dew Point 39 °F
Humidity 71%
Rainfall 0.00 in
Snow Depth Not available.
6:40 AM 7:14 PM
Waxing Crescent, 3% visible
SPECI KISP 291320Z 36015KT 10SM SCT027 08/03 A3002 RMK AO2 T00830033

Get Severe Weather Alerts

Thanks for signing up!

Be on the lookout for a verification email in your inbox.

You'll start receiving the daily forecast at 8 AM.

×

10-Day Weather Forecast

Almanac

Astronomy

Mar. 29, 2017 Rise Set
Actual Time
Civil Twilight
Nautical Twilight
Astronomical Twilight
Moon
Length of Visible Light
Length of Day
Tomorrow will be .
, % of the Moon is Illuminated

Today's Extremes

State Highs State Lows

Community

WunderPhotos

Upload Photos

1,962,540 photos uploaded!

WunderBlog® & News

Nearby

Air Quality

  Air Quality AQ Index Pollutant
Not available.

Snow Depth

Station Depth Elevation

Earthquake Activity

City Distance Mag. Time & Date
Minimum magnitude displayed is 2.5.

Earthquake Activity

City Distance Mag. Time & Date
Minimum magnitude displayed is 2.5.

Coastal Water Temperatures

Place Temperature

Stations

Nearby Weather Stations

Station Location Temp. Windchill Dew Point Humidity Wind Precip. Elev Updated Type
                   

Watches & Warnings

There are currently no watches in effect.